This is the latest recevied weather packets stored in our database for station/object OE5HCE. If no packets are shown the sender has not sent any weather packets the latest 10 day(s).
| Time | Temp. | Humidity | Pressure | Rain* | Wind** | Luminosity | Snow |
|---|---|---|---|---|---|---|---|
| 1787601613 | 20° C | 59% | 1015.9 hPa | 0 mm | - | 0 W/m² | - |
| 1787600713 | 20° C | 59% | 1016 hPa | 0 mm | - | 0 W/m² | - |
| 1787599811 | 20.56° C | 58% | 1015.7 hPa | 0 mm | - | 0 W/m² | - |
| 1787598910 | 20.56° C | 58% | 1016.1 hPa | 0 mm | - | 0 W/m² | - |
| 1787598010 | 20.56° C | 58% | 1016.1 hPa | 0 mm | - | 0 W/m² | - |
| 1787597111 | 21.11° C | 57% | 1016 hPa | 0 mm | - | 0 W/m² | - |
| 1787596207 | 21.11° C | 57% | 1015.9 hPa | 0 mm | - | 0 W/m² | - |
| 1787595306 | 21.67° C | 58% | 1015.9 hPa | 0 mm | - | 0 W/m² | - |
| 1787594408 | 21.67° C | 57% | 1016 hPa | 0 mm | - | 0 W/m² | - |
| 1787593505 | 22.22° C | 56% | 1016 hPa | 0 mm | - | 9 W/m² | - |
| 1787592603 | 22.78° C | 55% | 1016.2 hPa | 0 mm | - | 21 W/m² | - |
| 1787591701 | 23.33° C | 54% | 1016.4 hPa | 0 mm | - | 35 W/m² | - |
| 1787590861 | 23.89° C | 52% | 1016.6 hPa | 0 mm | - | 33 W/m² | - |
| 1787589957 | 24.44° C | 50% | 1016.9 hPa | 0 mm | - | 120 W/m² | - |
| 1787589072 | 24.44° C | 50% | 1016.9 hPa | 0 mm | - | 90 W/m² | - |
| 1787588164 | 26.11° C | 48% | 1017.1 hPa | 0 mm | - | 206 W/m² | - |
| 1787587258 | 26.11° C | 48% | 1017.4 hPa | 0 mm | - | 246 W/m² | - |
| 1787586351 | 26.67° C | 46% | 1017.6 hPa | 0 mm | - | 287 W/m² | - |
| 1787585448 | 26.67° C | 48% | 1017.8 hPa | 0 mm | - | 325 W/m² | - |
| 1787584554 | 27.78° C | 43% | 1018.1 hPa | 0 mm | - | 359 W/m² | - |
| 1787583646 | 26.67° C | 47% | 1018.1 hPa | 0 mm | - | 396 W/m² | - |
| 1787582743 | 26.67° C | 47% | 1018.2 hPa | 0 mm | - | 434 W/m² | - |
| 1787581842 | 26.67° C | 46% | 1018.5 hPa | 0 mm | - | 478 W/m² | - |
| 1787580940 | 26.67° C | 47% | 1018.5 hPa | 0 mm | - | 529 W/m² | - |
| 1787580038 | 26.67° C | 47% | 1018.6 hPa | 0 mm | - | 599 W/m² | - |
* Rain latest hour (hover to see other rain measurements)
** Current wind speed in m/s (hover to see current wind gust speed)